AFR431 MROC-LFPG
Flight info
| Callsign | AFR431 |
|---|---|
| Flight time | N/A |
| Altitude | 36000 |
| Route | NANJO3R RADON UB767 GCM/N0492F380 UM330 ENAMO/N0492F370 M330 MILLE/M084F370 M330 RUDLI/M084F390 M330 SHEIL DCT LAZEY DCT 34N060W 40N050W 45N040W/M084F410 4730N03000W 49N020W DCT KOGAD DCT BIMGO DCT RATKA/N0487F410 DCT LARLA/N0486F400 DCT GANTO/N0488F410 DCT JSY/N0471F320 UY111 INGOR/N0455F280 UM25 LUKIP |
| Aircraft | A359/H-SABDE2E3GHIJ1J2J3J4J5M1P2RWXYZ/LB1D1 |
Departure
| Time | 2026-05-08 22:54 |
|---|---|
| Airport | Juan Santamaría International Airport (MROC) |
Arrival
| Time | N/A |
|---|---|
| Airport | Charles de Gaulle International Airport (LFPG) |
| Time | Latitude | Longitude | Altitude | Speed | Heading |
|---|---|---|---|---|---|
| 2026-05-08 22:13 | 9.99859 | -84.20092 | 3041 ft | 0 kts | 339° |
| 2026-05-08 22:13 | 9.99858 | -84.20092 | 3041 ft | 0 kts | 339° |
| 2026-05-08 22:41 | 9.99856 | -84.20091 | 3044 ft | 8 kts | 339° |
| 2026-05-08 22:42 | 9.99838 | -84.20084 | 3042 ft | 4 kts | 345° |
| 2026-05-08 22:42 | 9.99812 | -84.20083 | 3039 ft | 4 kts | 20° |
| 2026-05-08 22:42 | 9.99790 | -84.20096 | 3038 ft | 4 kts | 47° |
| 2026-05-08 22:42 | 9.99775 | -84.20118 | 3040 ft | 4 kts | 66° |
| 2026-05-08 22:43 | 9.99772 | -84.20123 | 3039 ft | 1 kts | 69° |
| 2026-05-08 22:44 | 9.99772 | -84.20124 | 3039 ft | 0 kts | 69° |
| 2026-05-08 22:48 | 9.99772 | -84.20123 | 3039 ft | 1 kts | 69° |
| 2026-05-08 22:48 | 9.99780 | -84.20103 | 3038 ft | 6 kts | 69° |
| 2026-05-08 22:49 | 9.99798 | -84.20047 | 3041 ft | 11 kts | 82° |
| 2026-05-08 22:49 | 9.99727 | -84.19987 | 3046 ft | 8 kts | 158° |
| 2026-05-08 22:49 | 9.99646 | -84.19955 | 3046 ft | 16 kts | 159° |
| 2026-05-08 22:50 | 9.99585 | -84.19909 | 3045 ft | 8 kts | 98° |
| 2026-05-08 22:50 | 9.99596 | -84.19860 | 3045 ft | 8 kts | 67° |
| 2026-05-08 22:50 | 9.99614 | -84.19813 | 3045 ft | 7 kts | 69° |
| 2026-05-08 22:50 | 9.99628 | -84.19776 | 3047 ft | 5 kts | 69° |
| 2026-05-08 22:51 | 9.99639 | -84.19748 | 3044 ft | 4 kts | 69° |
| 2026-05-08 22:51 | 9.99652 | -84.19713 | 3047 ft | 7 kts | 69° |
| 2026-05-08 22:51 | 9.99671 | -84.19662 | 3050 ft | 7 kts | 69° |
| 2026-05-08 22:51 | 9.99686 | -84.19623 | 3053 ft | 7 kts | 69° |
| 2026-05-08 22:52 | 9.99705 | -84.19571 | 3055 ft | 9 kts | 69° |
| 2026-05-08 22:52 | 9.99751 | -84.19522 | 3057 ft | 11 kts | 11° |
| 2026-05-08 22:52 | 9.99834 | -84.19544 | 3058 ft | 10 kts | 338° |
| 2026-05-08 22:52 | 9.99873 | -84.19583 | 3057 ft | 7 kts | 276° |
| 2026-05-08 22:53 | 9.99858 | -84.19633 | 3056 ft | 9 kts | 250° |
| 2026-05-08 22:53 | 9.99855 | -84.19642 | 3057 ft | 0 kts | 250° |
| 2026-05-08 22:53 | 9.99810 | -84.19764 | 3048 ft | 49 kts | 249° |
| 2026-05-08 22:53 | 9.99596 | -84.20334 | 3045 ft | 121 kts | 249° |
| 2026-05-08 22:54 | 9.99215 | -84.21350 | 2999 ft | 185 kts | 250° |
| 2026-05-08 22:54 | 9.98760 | -84.22626 | 3574 ft | 194 kts | 249° |
| 2026-05-08 22:54 | 9.98341 | -84.23909 | 4573 ft | 191 kts | 262° |
| 2026-05-08 22:54 | 9.98706 | -84.25124 | 5302 ft | 178 kts | 314° |
| 2026-05-08 22:55 | 9.99654 | -84.25883 | 5725 ft | 174 kts | 333° |
| 2026-05-08 22:55 | 10.00675 | -84.26555 | 6079 ft | 176 kts | 329° |
| 2026-05-08 22:55 | 10.01697 | -84.27311 | 6286 ft | 187 kts | 327° |
| 2026-05-08 22:55 | 10.02701 | -84.28144 | 6685 ft | 183 kts | 324° |
| 2026-05-08 22:56 | 10.03637 | -84.28967 | 7192 ft | 175 kts | 322° |
| 2026-05-08 22:56 | 10.04536 | -84.29778 | 7612 ft | 172 kts | 322° |
| 2026-05-08 22:56 | 10.05428 | -84.30590 | 7954 ft | 172 kts | 322° |
| 2026-05-08 22:56 | 10.06318 | -84.31409 | 8286 ft | 173 kts | 322° |
| 2026-05-08 22:57 | 10.07211 | -84.32235 | 8617 ft | 174 kts | 322° |
| 2026-05-08 22:57 | 10.08108 | -84.33067 | 8919 ft | 175 kts | 322° |
| 2026-05-08 22:57 | 10.09020 | -84.33892 | 9188 ft | 176 kts | 326° |
| 2026-05-08 22:57 | 10.10069 | -84.34527 | 9405 ft | 178 kts | 345° |
| 2026-05-08 22:58 | 10.11291 | -84.34765 | 9555 ft | 183 kts | 6° |
| 2026-05-08 22:58 | 10.12554 | -84.34526 | 9746 ft | 189 kts | 25° |
| 2026-05-08 22:58 | 10.13801 | -84.34000 | 9951 ft | 201 kts | 28° |
| 2026-05-08 22:58 | 10.15117 | -84.33398 | 10161 ft | 215 kts | 28° |
| 2026-05-08 22:59 | 10.16528 | -84.32761 | 10383 ft | 229 kts | 27° |
| 2026-05-08 22:59 | 10.18032 | -84.32093 | 10597 ft | 244 kts | 27° |
| 2026-05-08 22:59 | 10.19647 | -84.31379 | 10783 ft | 261 kts | 27° |
| 2026-05-08 22:59 | 10.21363 | -84.30626 | 11069 ft | 276 kts | 26° |
| 2026-05-08 23:00 | 10.23167 | -84.29833 | 11344 ft | 290 kts | 26° |
| 2026-05-08 23:00 | 10.25059 | -84.29001 | 11623 ft | 303 kts | 26° |
| 2026-05-08 23:00 | 10.27035 | -84.28131 | 11903 ft | 316 kts | 26° |
| 2026-05-08 23:00 | 10.29094 | -84.27218 | 12183 ft | 328 kts | 27° |
| 2026-05-08 23:01 | 10.31187 | -84.26196 | 12448 ft | 340 kts | 28° |
| 2026-05-08 23:01 | 10.33311 | -84.25128 | 12697 ft | 351 kts | 28° |
| 2026-05-08 23:01 | 10.35530 | -84.24019 | 12902 ft | 361 kts | 28° |
| 2026-05-08 23:01 | 10.37809 | -84.22887 | 13207 ft | 368 kts | 27° |
| 2026-05-08 23:02 | 10.40120 | -84.21743 | 13636 ft | 371 kts | 27° |
| 2026-05-08 23:02 | 10.42450 | -84.20593 | 14000 ft | 374 kts | 27° |
| 2026-05-08 23:02 | 10.44796 | -84.19435 | 14377 ft | 377 kts | 27° |
| 2026-05-08 23:02 | 10.47167 | -84.18265 | 14748 ft | 379 kts | 27° |
| 2026-05-08 23:03 | 10.49545 | -84.17092 | 15143 ft | 381 kts | 27° |
| 2026-05-08 23:03 | 10.51941 | -84.15910 | 15502 ft | 384 kts | 27° |
| 2026-05-08 23:03 | 10.54346 | -84.14723 | 15893 ft | 386 kts | 27° |
| 2026-05-08 23:03 | 10.56766 | -84.13529 | 16289 ft | 387 kts | 27° |
| 2026-05-08 23:04 | 10.59200 | -84.12327 | 16662 ft | 391 kts | 26° |
| 2026-05-08 23:04 | 10.61651 | -84.11117 | 17049 ft | 392 kts | 26° |
| 2026-05-08 23:04 | 10.64111 | -84.09902 | 17393 ft | 396 kts | 26° |
| 2026-05-08 23:04 | 10.66591 | -84.08677 | 17824 ft | 396 kts | 26° |
| 2026-05-08 23:05 | 10.69089 | -84.07472 | 18119 ft | 400 kts | 24° |
| 2026-05-08 23:05 | 10.71719 | -84.06532 | 18470 ft | 401 kts | 17° |
| 2026-05-08 23:05 | 10.74430 | -84.05795 | 18697 ft | 406 kts | 14° |
| 2026-05-08 23:05 | 10.77191 | -84.05150 | 19064 ft | 407 kts | 13° |
| 2026-05-08 23:06 | 10.79968 | -84.04546 | 19322 ft | 411 kts | 13° |
| 2026-05-08 23:06 | 10.82770 | -84.03946 | 19674 ft | 411 kts | 13° |
| 2026-05-08 23:06 | 10.85579 | -84.03336 | 19913 ft | 415 kts | 14° |
| 2026-05-08 23:06 | 10.88406 | -84.02710 | 20244 ft | 417 kts | 14° |
| 2026-05-08 23:07 | 10.91246 | -84.02071 | 20495 ft | 420 kts | 14° |
| 2026-05-08 23:07 | 10.94108 | -84.01421 | 20816 ft | 421 kts | 14° |
| 2026-05-08 23:07 | 10.96978 | -84.00765 | 21108 ft | 425 kts | 14° |
| 2026-05-08 23:07 | 10.99863 | -84.00104 | 21432 ft | 426 kts | 15° |
| 2026-05-08 23:08 | 11.02763 | -83.99439 | 21730 ft | 429 kts | 15° |
| 2026-05-08 23:08 | 11.05685 | -83.98770 | 22033 ft | 431 kts | 15° |
| 2026-05-08 23:08 | 11.08615 | -83.98100 | 22327 ft | 434 kts | 15° |
| 2026-05-08 23:08 | 11.11570 | -83.97424 | 22641 ft | 436 kts | 15° |
| 2026-05-08 23:09 | 11.14539 | -83.96744 | 22946 ft | 438 kts | 15° |
| 2026-05-08 23:09 | 11.17517 | -83.96063 | 23242 ft | 441 kts | 15° |
| 2026-05-08 23:09 | 11.20518 | -83.95377 | 23522 ft | 443 kts | 15° |
| 2026-05-08 23:09 | 11.23525 | -83.94688 | 23791 ft | 445 kts | 15° |
| 2026-05-08 23:10 | 11.26551 | -83.93996 | 24056 ft | 446 kts | 15° |
| 2026-05-08 23:10 | 11.29587 | -83.93301 | 24333 ft | 448 kts | 15° |
| 2026-05-08 23:10 | 11.32630 | -83.92605 | 24616 ft | 449 kts | 15° |
| 2026-05-08 23:10 | 11.35686 | -83.91905 | 24884 ft | 451 kts | 15° |
| 2026-05-08 23:11 | 11.38749 | -83.91204 | 25180 ft | 453 kts | 15° |
| 2026-05-08 23:11 | 11.41828 | -83.90498 | 25501 ft | 454 kts | 15° |
| 2026-05-08 23:11 | 11.44883 | -83.89797 | 25810 ft | 457 kts | 14° |
| 2026-05-08 23:11 | 11.48029 | -83.89076 | 26142 ft | 459 kts | 14° |
| 2026-05-08 23:12 | 11.51107 | -83.88371 | 26469 ft | 461 kts | 14° |
| 2026-05-08 23:12 | 11.54245 | -83.87651 | 26791 ft | 463 kts | 14° |
| 2026-05-08 23:12 | 11.57398 | -83.86928 | 27110 ft | 466 kts | 14° |
| 2026-05-08 23:12 | 11.60565 | -83.86201 | 27436 ft | 468 kts | 14° |
| 2026-05-08 23:13 | 11.63748 | -83.85470 | 27762 ft | 470 kts | 14° |
| 2026-05-08 23:13 | 11.66952 | -83.84735 | 28092 ft | 473 kts | 14° |
| 2026-05-08 23:13 | 11.70167 | -83.83997 | 28403 ft | 475 kts | 14° |
| 2026-05-08 23:13 | 11.73397 | -83.83255 | 28719 ft | 477 kts | 14° |
| 2026-05-08 23:14 | 11.76650 | -83.82507 | 29022 ft | 480 kts | 14° |
| 2026-05-08 23:14 | 11.79911 | -83.81758 | 29323 ft | 482 kts | 14° |
| 2026-05-08 23:14 | 11.83192 | -83.81004 | 29618 ft | 484 kts | 14° |
| 2026-05-08 23:14 | 11.86482 | -83.80247 | 29895 ft | 486 kts | 14° |
| 2026-05-08 23:15 | 11.89794 | -83.79486 | 30131 ft | 488 kts | 14° |
| 2026-05-08 23:15 | 11.93113 | -83.78723 | 30350 ft | 490 kts | 14° |
| 2026-05-08 23:15 | 11.96448 | -83.77955 | 30571 ft | 492 kts | 14° |
| 2026-05-08 23:15 | 11.99794 | -83.77186 | 30847 ft | 493 kts | 14° |
| 2026-05-08 23:16 | 12.03150 | -83.76466 | 31083 ft | 494 kts | 12° |
| 2026-05-08 23:16 | 12.06536 | -83.75828 | 31298 ft | 496 kts | 11° |
| 2026-05-08 23:16 | 12.09945 | -83.75223 | 31534 ft | 497 kts | 11° |
| 2026-05-08 23:16 | 12.13323 | -83.74630 | 31824 ft | 496 kts | 11° |
| 2026-05-08 23:17 | 12.16718 | -83.74027 | 32136 ft | 495 kts | 11° |
| 2026-05-08 23:17 | 12.20111 | -83.73413 | 32407 ft | 495 kts | 11° |
| 2026-05-08 23:17 | 12.23490 | -83.72793 | 32721 ft | 494 kts | 11° |
| 2026-05-08 23:17 | 12.26871 | -83.72167 | 32972 ft | 493 kts | 12° |
| 2026-05-08 23:18 | 12.30249 | -83.71538 | 33246 ft | 493 kts | 12° |
| 2026-05-08 23:18 | 12.33618 | -83.70909 | 33533 ft | 492 kts | 12° |
| 2026-05-08 23:18 | 12.36984 | -83.70280 | 33800 ft | 492 kts | 11° |
| 2026-05-08 23:18 | 12.40341 | -83.69653 | 34072 ft | 490 kts | 11° |
| 2026-05-08 23:19 | 12.43696 | -83.69026 | 34253 ft | 490 kts | 12° |
| 2026-05-08 23:19 | 12.47050 | -83.68400 | 34459 ft | 490 kts | 11° |
| 2026-05-08 23:19 | 12.50412 | -83.67773 | 34664 ft | 490 kts | 11° |
| 2026-05-08 23:19 | 12.53758 | -83.67148 | 34842 ft | 490 kts | 11° |
| 2026-05-08 23:20 | 12.57112 | -83.66522 | 35074 ft | 489 kts | 11° |
| 2026-05-08 23:20 | 12.60419 | -83.65905 | 35223 ft | 490 kts | 11° |
| 2026-05-08 23:20 | 12.63765 | -83.65281 | 35421 ft | 489 kts | 11° |
| 2026-05-08 23:20 | 12.66903 | -83.64695 | 35581 ft | 489 kts | 11° |
| 2026-05-08 23:21 | 12.70246 | -83.64069 | 35758 ft | 489 kts | 11° |
| 2026-05-08 23:21 | 12.73641 | -83.63434 | 35863 ft | 491 kts | 11° |
| 2026-05-08 23:21 | 12.80400 | -83.62169 | 35875 ft | 495 kts | 11° |
| 2026-05-08 23:22 | 12.87175 | -83.60901 | 35879 ft | 495 kts | 11° |
| 2026-05-08 23:22 | 12.93945 | -83.59635 | 35879 ft | 494 kts | 11° |
| 2026-05-08 23:23 | 13.00669 | -83.58375 | 35876 ft | 495 kts | 11° |
| 2026-05-08 23:23 | 13.07439 | -83.57106 | 35876 ft | 494 kts | 11° |
| 2026-05-08 23:24 | 13.14202 | -83.55839 | 35872 ft | 494 kts | 11° |
| 2026-05-08 23:24 | 13.20965 | -83.54570 | 35873 ft | 494 kts | 11° |
| 2026-05-08 23:25 | 13.27724 | -83.53301 | 35872 ft | 494 kts | 11° |
| 2026-05-08 23:25 | 13.34490 | -83.52030 | 35870 ft | 494 kts | 11° |
| 2026-05-08 23:26 | 13.40110 | -83.50973 | 35870 ft | 494 kts | 11° |
| 2026-05-08 23:26 | 13.46870 | -83.49702 | 35864 ft | 493 kts | 11° |
| 2026-05-08 23:27 | 13.53615 | -83.48433 | 35863 ft | 493 kts | 11° |
| 2026-05-08 23:27 | 13.60359 | -83.47164 | 35862 ft | 493 kts | 11° |
| 2026-05-08 23:28 | 13.67105 | -83.45894 | 35862 ft | 493 kts | 11° |
| 2026-05-08 23:28 | 13.73852 | -83.44622 | 35861 ft | 493 kts | 11° |
| 2026-05-08 23:29 | 13.80591 | -83.43350 | 35858 ft | 492 kts | 11° |
| 2026-05-08 23:29 | 13.87324 | -83.42080 | 35857 ft | 492 kts | 11° |
| 2026-05-08 23:30 | 13.94057 | -83.40809 | 35857 ft | 492 kts | 11° |
| 2026-05-08 23:30 | 14.00789 | -83.39537 | 35857 ft | 492 kts | 11° |
| 2026-05-08 23:31 | 14.07384 | -83.37733 | 35861 ft | 491 kts | 19° |
| 2026-05-08 23:31 | 14.13833 | -83.35395 | 35866 ft | 491 kts | 20° |
| 2026-05-08 23:32 | 14.20254 | -83.32975 | 35868 ft | 491 kts | 20° |
| 2026-05-08 23:32 | 14.26669 | -83.30555 | 35879 ft | 491 kts | 20° |
| 2026-05-08 23:33 | 14.33094 | -83.28143 | 35880 ft | 491 kts | 20° |
| 2026-05-08 23:33 | 14.39513 | -83.25738 | 35881 ft | 491 kts | 20° |
| 2026-05-08 23:34 | 14.45939 | -83.23329 | 35882 ft | 491 kts | 20° |
| 2026-05-08 23:34 | 14.52322 | -83.20935 | 35881 ft | 491 kts | 20° |
| 2026-05-08 23:35 | 14.58746 | -83.18523 | 35883 ft | 491 kts | 20° |
| 2026-05-08 23:35 | 14.65166 | -83.16112 | 35884 ft | 491 kts | 20° |
| 2026-05-08 23:36 | 14.71585 | -83.13699 | 35897 ft | 491 kts | 20° |
| 2026-05-08 23:36 | 14.78010 | -83.11283 | 35896 ft | 491 kts | 20° |
| 2026-05-08 23:37 | 14.84434 | -83.08865 | 35899 ft | 491 kts | 20° |
| 2026-05-08 23:37 | 14.90847 | -83.06450 | 35901 ft | 490 kts | 20° |
| 2026-05-08 23:38 | 14.97261 | -83.04033 | 35903 ft | 490 kts | 20° |
| 2026-05-08 23:38 | 15.03674 | -83.01615 | 35902 ft | 490 kts | 20° |
| 2026-05-08 23:39 | 15.10088 | -82.99195 | 35906 ft | 491 kts | 20° |
| 2026-05-08 23:39 | 15.16498 | -82.96775 | 35905 ft | 490 kts | 20° |
| 2026-05-08 23:40 | 15.22912 | -82.94352 | 35907 ft | 490 kts | 20° |
| 2026-05-08 23:40 | 15.29285 | -82.91945 | 35909 ft | 490 kts | 20° |
| 2026-05-08 23:41 | 15.35683 | -82.89527 | 35909 ft | 489 kts | 20° |
| 2026-05-08 23:41 | 15.42092 | -82.87102 | 35907 ft | 489 kts | 20° |
| 2026-05-08 23:42 | 15.48490 | -82.84680 | 35906 ft | 489 kts | 20° |
| 2026-05-08 23:42 | 15.54848 | -82.82272 | 35911 ft | 489 kts | 20° |
| 2026-05-08 23:43 | 15.61243 | -82.79849 | 35908 ft | 488 kts | 20° |
| 2026-05-08 23:43 | 15.67627 | -82.77428 | 35910 ft | 488 kts | 20° |
| 2026-05-08 23:44 | 15.74009 | -82.75007 | 35913 ft | 489 kts | 20° |
| 2026-05-08 23:44 | 15.80394 | -82.72582 | 35910 ft | 488 kts | 20° |
| 2026-05-08 23:45 | 15.86769 | -82.70160 | 35912 ft | 488 kts | 20° |
| 2026-05-08 23:45 | 15.93149 | -82.67735 | 35915 ft | 488 kts | 20° |
| 2026-05-08 23:46 | 15.99527 | -82.65308 | 35917 ft | 487 kts | 20° |
| 2026-05-08 23:46 | 16.05853 | -82.62900 | 35915 ft | 487 kts | 20° |
| 2026-05-08 23:47 | 16.12228 | -82.60471 | 35920 ft | 487 kts | 20° |
| 2026-05-08 23:47 | 16.18592 | -82.58045 | 35921 ft | 487 kts | 20° |
| 2026-05-08 23:48 | 16.24797 | -82.55677 | 35921 ft | 486 kts | 20° |
| 2026-05-08 23:48 | 16.31124 | -82.53261 | 35922 ft | 484 kts | 20° |
| 2026-05-08 23:49 | 16.37454 | -82.50843 | 35925 ft | 485 kts | 20° |
| 2026-05-08 23:49 | 16.43782 | -82.48424 | 35922 ft | 484 kts | 20° |
| 2026-05-08 23:50 | 16.50104 | -82.46006 | 35919 ft | 484 kts | 20° |
| 2026-05-08 23:50 | 16.56427 | -82.43585 | 35920 ft | 484 kts | 20° |
| 2026-05-08 23:51 | 16.62746 | -82.41164 | 35925 ft | 484 kts | 20° |
| 2026-05-08 23:51 | 16.69063 | -82.38742 | 35924 ft | 484 kts | 20° |
| 2026-05-08 23:52 | 16.75388 | -82.36316 | 35930 ft | 484 kts | 20° |
| 2026-05-08 23:52 | 16.81674 | -82.33903 | 35932 ft | 485 kts | 20° |
| 2026-05-08 23:53 | 16.87996 | -82.31474 | 35928 ft | 484 kts | 20° |
| 2026-05-08 23:53 | 16.94314 | -82.29046 | 35934 ft | 484 kts | 20° |
| 2026-05-08 23:54 | 17.00623 | -82.26618 | 35935 ft | 484 kts | 20° |
| 2026-05-08 23:55 | 17.10094 | -82.22971 | 35938 ft | 484 kts | 20° |
| 2026-05-08 23:55 | 17.16405 | -82.20538 | 35935 ft | 483 kts | 20° |
| 2026-05-08 23:56 | 17.22718 | -82.18103 | 35937 ft | 484 kts | 20° |
| 2026-05-08 23:56 | 17.29032 | -82.15666 | 35936 ft | 483 kts | 20° |
| 2026-05-08 23:57 | 17.35339 | -82.13230 | 35937 ft | 483 kts | 20° |
| 2026-05-08 23:57 | 17.41643 | -82.10793 | 35938 ft | 483 kts | 20° |
| 2026-05-08 23:58 | 17.47944 | -82.08356 | 35936 ft | 483 kts | 20° |
| 2026-05-08 23:58 | 17.54253 | -82.05914 | 35936 ft | 483 kts | 20° |
| 2026-05-08 23:59 | 17.60556 | -82.03470 | 35939 ft | 483 kts | 20° |
| 2026-05-08 23:59 | 17.66852 | -82.01015 | 35941 ft | 483 kts | 20° |
| 2026-05-09 00:00 | 17.73152 | -81.98556 | 35945 ft | 483 kts | 20° |
| 2026-05-09 00:00 | 17.79450 | -81.96097 | 35945 ft | 483 kts | 20° |
| 2026-05-09 00:01 | 17.85751 | -81.93637 | 35947 ft | 483 kts | 20° |
| 2026-05-09 00:01 | 17.92045 | -81.91177 | 35946 ft | 483 kts | 20° |
| 2026-05-09 00:02 | 17.98265 | -81.88746 | 35946 ft | 483 kts | 20° |
| 2026-05-09 00:02 | 18.04560 | -81.86282 | 35946 ft | 483 kts | 20° |
| 2026-05-09 00:03 | 18.10779 | -81.83847 | 35947 ft | 483 kts | 20° |
| 2026-05-09 00:03 | 18.17115 | -81.81363 | 35947 ft | 483 kts | 20° |
| 2026-05-09 00:04 | 18.23372 | -81.78909 | 35949 ft | 483 kts | 20° |
| 2026-05-09 00:04 | 18.29670 | -81.76436 | 35952 ft | 484 kts | 20° |
| 2026-05-09 00:05 | 18.35984 | -81.73956 | 35954 ft | 485 kts | 20° |
| 2026-05-09 00:05 | 18.42304 | -81.71471 | 35954 ft | 485 kts | 20° |
| 2026-05-09 00:06 | 18.48622 | -81.68985 | 35952 ft | 485 kts | 20° |
| 2026-05-09 00:06 | 18.54940 | -81.66498 | 35951 ft | 485 kts | 20° |
| 2026-05-09 00:07 | 18.61261 | -81.64007 | 35959 ft | 485 kts | 20° |
| 2026-05-09 00:07 | 18.67583 | -81.61513 | 35957 ft | 485 kts | 20° |
| 2026-05-09 00:08 | 18.73912 | -81.59016 | 35957 ft | 485 kts | 20° |
| 2026-05-09 00:08 | 18.80238 | -81.56517 | 35962 ft | 485 kts | 20° |
| 2026-05-09 00:09 | 18.86562 | -81.54016 | 35961 ft | 485 kts | 20° |
| 2026-05-09 00:09 | 18.92884 | -81.51515 | 35959 ft | 485 kts | 20° |
| 2026-05-09 00:10 | 18.99208 | -81.49011 | 35957 ft | 485 kts | 20° |
| 2026-05-09 00:10 | 19.05525 | -81.46507 | 35952 ft | 485 kts | 20° |
| 2026-05-09 00:11 | 19.11847 | -81.44000 | 35948 ft | 485 kts | 20° |
| 2026-05-09 00:11 | 19.18167 | -81.41491 | 35943 ft | 485 kts | 20° |
| 2026-05-09 00:12 | 19.24489 | -81.38979 | 35938 ft | 485 kts | 19° |
| 2026-05-09 00:12 | 19.29499 | -81.36317 | 36130 ft | 486 kts | 32° |
| 2026-05-09 00:12 | 19.32197 | -81.34176 | 36419 ft | 484 kts | 37° |
| 2026-05-09 00:13 | 19.34794 | -81.31912 | 36671 ft | 483 kts | 38° |
| 2026-05-09 00:13 | 19.37340 | -81.29608 | 36891 ft | 482 kts | 39° |
| 2026-05-09 00:13 | 19.39865 | -81.27281 | 37084 ft | 481 kts | 39° |
| 2026-05-09 00:13 | 19.42381 | -81.24949 | 37259 ft | 481 kts | 39° |
| 2026-05-09 00:14 | 19.44898 | -81.22616 | 37424 ft | 480 kts | 39° |
| 2026-05-09 00:14 | 19.47411 | -81.20295 | 37605 ft | 479 kts | 39° |
| 2026-05-09 00:14 | 19.49927 | -81.17975 | 37762 ft | 479 kts | 39° |
| 2026-05-09 00:14 | 19.52439 | -81.15664 | 37916 ft | 479 kts | 39° |
| 2026-05-09 00:15 | 19.54961 | -81.13346 | 37959 ft | 480 kts | 39° |
| 2026-05-09 00:15 | 19.60033 | -81.08684 | 37969 ft | 484 kts | 39° |
| 2026-05-09 00:16 | 19.65115 | -81.04008 | 37971 ft | 483 kts | 39° |
| 2026-05-09 00:16 | 19.70193 | -80.99331 | 37971 ft | 483 kts | 39° |
| 2026-05-09 00:17 | 19.75270 | -80.94650 | 37970 ft | 483 kts | 39° |
| 2026-05-09 00:17 | 19.80345 | -80.89966 | 37977 ft | 483 kts | 39° |
| 2026-05-09 00:18 | 19.85420 | -80.85279 | 37974 ft | 484 kts | 39° |
| 2026-05-09 00:18 | 19.90496 | -80.80587 | 37975 ft | 484 kts | 39° |
| 2026-05-09 00:19 | 19.95580 | -80.75883 | 37977 ft | 485 kts | 39° |
| 2026-05-09 00:19 | 20.00659 | -80.71181 | 37976 ft | 485 kts | 39° |
| 2026-05-09 00:20 | 20.05714 | -80.66504 | 37976 ft | 485 kts | 39° |
| 2026-05-09 00:20 | 20.10793 | -80.61787 | 37975 ft | 485 kts | 39° |
| 2026-05-09 00:21 | 20.15871 | -80.57070 | 37978 ft | 485 kts | 39° |
| 2026-05-09 00:21 | 20.20947 | -80.52352 | 37978 ft | 485 kts | 39° |
| 2026-05-09 00:22 | 20.26027 | -80.47627 | 37974 ft | 486 kts | 39° |
| 2026-05-09 00:22 | 20.31121 | -80.42885 | 37975 ft | 486 kts | 39° |
| 2026-05-09 00:23 | 20.36205 | -80.38147 | 37972 ft | 486 kts | 39° |
| 2026-05-09 00:23 | 20.41298 | -80.33397 | 37973 ft | 486 kts | 39° |
| 2026-05-09 00:24 | 20.46383 | -80.28650 | 37974 ft | 486 kts | 39° |
| 2026-05-09 00:24 | 20.51472 | -80.23896 | 37970 ft | 486 kts | 39° |
| 2026-05-09 00:25 | 20.56557 | -80.19146 | 37970 ft | 487 kts | 39° |
| 2026-05-09 00:25 | 20.61652 | -80.14368 | 37973 ft | 488 kts | 39° |
| 2026-05-09 00:26 | 20.66744 | -80.09588 | 37969 ft | 488 kts | 39° |
| 2026-05-09 00:26 | 20.71839 | -80.04803 | 37968 ft | 488 kts | 39° |
| 2026-05-09 00:27 | 20.76935 | -80.00015 | 37973 ft | 488 kts | 39° |
| 2026-05-09 00:27 | 20.82029 | -79.95225 | 37969 ft | 488 kts | 39° |
| 2026-05-09 00:28 | 20.87122 | -79.90430 | 37974 ft | 488 kts | 39° |
| 2026-05-09 00:28 | 20.92194 | -79.85652 | 37968 ft | 489 kts | 39° |
| 2026-05-09 00:29 | 20.97299 | -79.80837 | 37971 ft | 489 kts | 39° |
| 2026-05-09 00:29 | 21.02407 | -79.76016 | 37971 ft | 489 kts | 39° |
| 2026-05-09 00:30 | 21.07504 | -79.71199 | 37972 ft | 489 kts | 39° |